createdAt,value
2019-02-23T00:01:02.575Z,102874.61
2019-02-23T00:03:31.811Z,102877.20
2019-02-23T00:06:00.945Z,102871.96
2019-02-23T00:08:30.331Z,102876.34
2019-02-23T00:10:59.466Z,102871.48
2019-02-23T00:13:28.668Z,102874.02
2019-02-23T00:15:57.808Z,102872.71
2019-02-23T00:18:26.980Z,102866.89
2019-02-23T00:20:56.278Z,102866.08
2019-02-23T00:23:25.613Z,102862.11
2019-02-23T00:25:54.756Z,102870.58
2019-02-23T00:28:23.956Z,102860.74
2019-02-23T00:30:53.184Z,102859.48
2019-02-23T00:33:22.410Z,102859.09
2019-02-23T00:35:51.530Z,102866.64
2019-02-23T00:38:20.682Z,102864.23
2019-02-23T00:40:49.792Z,102861.92
2019-02-23T00:43:18.976Z,102863.38
2019-02-23T00:45:48.133Z,102864.48
2019-02-23T00:48:17.277Z,102855.33
2019-02-23T00:50:46.415Z,102852.42
2019-02-23T00:53:17.052Z,102858.16
2019-02-23T00:55:46.219Z,102856.25
2019-02-23T00:58:15.403Z,102855.69
2019-02-23T01:00:44.551Z,102848.55
2019-02-23T01:03:13.705Z,102846.74
2019-02-23T01:05:42.845Z,102844.13
2019-02-23T01:08:11.993Z,102846.44
2019-02-23T01:10:41.138Z,102849.05
2019-02-23T01:13:10.286Z,102857.93
2019-02-23T01:15:39.404Z,102856.52
2019-02-23T01:18:08.547Z,102859.73
2019-02-23T01:20:37.693Z,102863.34
2019-02-23T01:23:06.844Z,102859.83
2019-02-23T01:25:36.046Z,102843.56
2019-02-23T01:28:05.221Z,102843.45
2019-02-23T01:30:34.368Z,102844.56
2019-02-23T01:33:03.514Z,102846.09
2019-02-23T01:35:32.644Z,102846.39
2019-02-23T01:38:01.824Z,102851.41
2019-02-23T01:40:31.068Z,102852.52
2019-02-23T01:43:00.224Z,102849.00
2019-02-23T01:45:29.467Z,102860.44
2019-02-23T01:47:58.618Z,102842.16
2019-02-23T01:50:27.747Z,102831.34
2019-02-23T01:52:56.910Z,102820.79
2019-02-23T01:55:26.062Z,102811.45
2019-02-23T01:57:55.222Z,102805.42
2019-02-23T02:00:25.985Z,102805.81
2019-02-23T02:02:55.121Z,102805.64
2019-02-23T02:05:24.277Z,102801.44
2019-02-23T02:07:53.688Z,102806.74
2019-02-23T02:10:23.501Z,102805.14
2019-02-23T02:12:52.688Z,102807.13
2019-02-23T02:15:21.841Z,102806.61
2019-02-23T02:17:50.970Z,102812.95
2019-02-23T02:20:20.117Z,102819.87
2019-02-23T02:22:49.333Z,102803.72
2019-02-23T02:25:18.444Z,102806.33
2019-02-23T02:27:47.688Z,102797.49
2019-02-23T02:30:16.809Z,102783.95
2019-02-23T02:32:45.947Z,102769.48
2019-02-23T02:35:15.136Z,102778.10
2019-02-23T02:37:44.272Z,102774.48
2019-02-23T02:40:13.446Z,102776.19
2019-02-23T02:42:42.598Z,102773.00
2019-02-23T02:45:12.170Z,102769.69
2019-02-23T02:47:41.329Z,102771.07
2019-02-23T02:50:23.356Z,102771.07
2019-02-23T02:52:41.963Z,102755.51
2019-02-23T02:55:11.164Z,102756.91
2019-02-23T02:57:40.295Z,102750.81
2019-02-23T03:00:12.071Z,102749.58
2019-02-23T03:02:41.234Z,102736.47
2019-02-23T03:05:10.769Z,102727.54
2019-02-23T03:07:39.887Z,102721.72
2019-02-23T03:10:09.066Z,102724.00
2019-02-23T03:12:38.240Z,102727.41
2019-02-23T03:15:07.847Z,102728.42
2019-02-23T03:17:37.027Z,102713.39
2019-02-23T03:20:07.407Z,102713.28
2019-02-23T03:22:36.555Z,102713.28
2019-02-23T03:25:06.211Z,102717.20
2019-02-23T03:27:35.394Z,102717.48
2019-02-23T03:30:05.027Z,102718.77
2019-02-23T03:32:34.187Z,102729.98
2019-02-23T03:35:03.348Z,102738.53
2019-02-23T03:37:32.533Z,102747.05
2019-02-23T03:40:01.681Z,102750.34
2019-02-23T03:42:30.852Z,102757.54
2019-02-23T03:45:00.013Z,102761.23
2019-02-23T03:47:29.169Z,102757.22
2019-02-23T03:49:58.330Z,102756.61
2019-02-23T03:52:27.484Z,102763.12
2019-02-23T03:54:56.838Z,102762.11
2019-02-23T03:57:26.120Z,102756.97
2019-02-23T03:59:55.211Z,102765.00
2019-02-23T04:02:24.340Z,102766.59
2019-02-23T04:04:53.491Z,102759.06
2019-02-23T04:07:22.633Z,102755.95
2019-02-23T04:09:51.819Z,102756.02
2019-02-23T04:12:20.939Z,102756.02
2019-02-23T04:14:50.233Z,102750.52
2019-02-23T04:17:19.327Z,102754.61
2019-02-23T04:19:48.481Z,102749.86
2019-02-23T04:22:17.613Z,102756.77
2019-02-23T04:24:46.737Z,102761.47
2019-02-23T04:27:15.893Z,102757.62
2019-02-23T04:29:47.054Z,102757.05
2019-02-23T04:32:15.941Z,102767.92
2019-02-23T04:34:45.088Z,102761.42
2019-02-23T04:37:14.239Z,102762.09
2019-02-23T04:39:43.338Z,102763.62
2019-02-23T04:42:12.474Z,102765.99
2019-02-23T04:44:41.610Z,102764.70
2019-02-23T04:47:10.785Z,102769.90
2019-02-23T04:49:39.992Z,102770.80
2019-02-23T04:52:09.142Z,102774.31
2019-02-23T04:54:39.793Z,102771.71
2019-02-23T04:57:08.952Z,102766.91
2019-02-23T04:59:38.132Z,102771.20
2019-02-23T05:02:07.372Z,102506.61
2019-02-23T05:04:36.487Z,102775.61
2019-02-23T05:07:05.723Z,102782.12
2019-02-23T05:09:34.873Z,102787.92
2019-02-23T05:12:04.064Z,102788.99
2019-02-23T05:14:33.200Z,102795.04
2019-02-23T05:17:02.325Z,102802.61
2019-02-23T05:19:31.501Z,102815.63
2019-02-23T05:22:00.647Z,102825.23
2019-02-23T05:24:29.847Z,102831.46
2019-02-23T05:26:59.076Z,102824.95
2019-02-23T05:29:28.269Z,102820.55
2019-02-23T05:31:57.414Z,102827.84
2019-02-23T05:34:26.563Z,102829.41
2019-02-23T05:36:55.726Z,102830.20
2019-02-23T05:39:24.856Z,102823.47
2019-02-23T05:41:54.015Z,102826.08
2019-02-23T05:44:23.163Z,102828.98
2019-02-23T05:46:52.319Z,102835.66
2019-02-23T05:49:21.448Z,102835.53
2019-02-23T05:51:50.597Z,102842.31
2019-02-23T05:54:19.750Z,102844.69
2019-02-23T05:56:49.932Z,102845.23
2019-02-23T05:59:19.068Z,102847.33
2019-02-23T06:01:48.284Z,102845.62
2019-02-23T06:04:17.527Z,102842.40
2019-02-23T06:06:46.724Z,102855.52
2019-02-23T06:09:15.869Z,102865.02
2019-02-23T06:11:45.030Z,102857.02
2019-02-23T06:14:14.186Z,102855.20
2019-02-23T06:16:43.329Z,102856.54
2019-02-23T06:19:12.455Z,102849.05
2019-02-23T06:21:52.722Z,102852.39
2019-02-23T06:24:12.503Z,102858.14
2019-02-23T06:26:41.625Z,102861.95
2019-02-23T06:29:10.775Z,102863.02
2019-02-23T06:31:39.931Z,102860.02
2019-02-23T06:34:15.976Z,102859.36
2019-02-23T06:36:40.671Z,102855.70
2019-02-23T06:39:09.839Z,102862.16
2019-02-23T06:41:38.975Z,102856.38
2019-02-23T06:44:08.141Z,102862.84
2019-02-23T06:46:37.293Z,102871.00
2019-02-23T06:49:06.453Z,102873.80
2019-02-23T06:51:35.943Z,102881.09
2019-02-23T06:54:05.103Z,102886.41
2019-02-23T06:56:34.316Z,102891.68
2019-02-23T06:59:03.474Z,102879.46
2019-02-23T07:01:32.658Z,102877.57
2019-02-23T07:04:01.831Z,102877.47
2019-02-23T07:06:30.989Z,102878.45
2019-02-23T07:09:00.117Z,102870.42
2019-02-23T07:11:29.263Z,102879.48
2019-02-23T07:13:58.404Z,102883.22
2019-02-23T07:16:27.540Z,102880.31
2019-02-23T07:18:56.710Z,102881.12
2019-02-23T07:21:25.883Z,102882.54
2019-02-23T07:23:55.052Z,102875.98
2019-02-23T07:26:24.202Z,102872.62
2019-02-23T07:28:53.344Z,102880.05
2019-02-23T07:31:22.481Z,102877.46
2019-02-23T07:33:51.667Z,102877.37
2019-02-23T07:36:20.797Z,102863.62
2019-02-23T07:38:49.949Z,102843.69
2019-02-23T07:41:19.079Z,102843.13
2019-02-23T07:43:48.201Z,102845.11
2019-02-23T07:46:17.362Z,102840.57
2019-02-23T07:48:46.533Z,102846.13
2019-02-23T07:51:15.708Z,102844.62
2019-02-23T07:53:44.955Z,102843.92
2019-02-23T07:56:14.141Z,102840.07
2019-02-23T07:58:43.724Z,102840.23
2019-02-23T08:01:12.884Z,102843.61
2019-02-23T08:03:42.024Z,102839.42
2019-02-23T08:06:11.238Z,102850.37
2019-02-23T08:08:40.392Z,102842.05
2019-02-23T08:11:09.668Z,102850.86
2019-02-23T08:13:40.627Z,102854.56
2019-02-23T08:16:09.702Z,102850.18
2019-02-23T08:18:38.896Z,102855.98
2019-02-23T08:21:08.027Z,102853.41
2019-02-23T08:23:37.174Z,102852.50
2019-02-23T08:26:07.050Z,102849.78
2019-02-23T08:28:36.226Z,102850.19
2019-02-23T08:31:05.340Z,102843.95
2019-02-23T08:33:34.488Z,102845.53
2019-02-23T08:36:03.919Z,102847.48
2019-02-23T08:38:33.083Z,102843.24
2019-02-23T08:41:02.349Z,102841.33
2019-02-23T08:43:31.550Z,102841.03
2019-02-23T08:46:00.693Z,102574.88
2019-02-23T08:48:29.873Z,102841.13
2019-02-23T08:50:59.030Z,102843.14
2019-02-23T08:53:28.473Z,102835.56
2019-02-23T08:55:57.601Z,102832.14
2019-02-23T08:58:26.799Z,102832.90
2019-02-23T09:00:55.959Z,102840.46
2019-02-23T09:03:25.121Z,102835.27
2019-02-23T09:05:54.334Z,102830.93
2019-02-23T09:08:23.489Z,102834.28
2019-02-23T09:10:52.671Z,102843.17
2019-02-23T09:13:21.863Z,102844.55
2019-02-23T09:15:51.037Z,102847.86
2019-02-23T09:18:20.242Z,102836.55
2019-02-23T09:20:51.850Z,102831.52
2019-02-23T09:23:20.476Z,102826.67
2019-02-23T09:25:49.617Z,102834.20
2019-02-23T09:28:18.816Z,102827.27
2019-02-23T09:30:47.956Z,102824.77
2019-02-23T09:33:17.108Z,102829.17
2019-02-23T09:35:46.276Z,102819.41
2019-02-23T09:38:15.463Z,102813.98
2019-02-23T09:40:44.660Z,102813.09
2019-02-23T09:43:13.878Z,102810.94
2019-02-23T09:45:43.058Z,102812.74
2019-02-23T09:48:12.212Z,102812.47
2019-02-23T09:50:41.396Z,102823.87
2019-02-23T09:53:11.642Z,102819.50
2019-02-23T09:55:41.529Z,102818.31
2019-02-23T09:58:10.753Z,102830.02
2019-02-23T10:00:40.000Z,102827.25
2019-02-23T10:03:09.225Z,102824.73
2019-02-23T10:05:38.509Z,102821.50
2019-02-23T10:08:07.685Z,102822.97
2019-02-23T10:10:36.862Z,102817.48
2019-02-23T10:13:06.033Z,102805.58
2019-02-23T10:15:35.335Z,102805.67
2019-02-23T10:18:04.513Z,102816.13
2019-02-23T10:20:33.710Z,102820.53
2019-02-23T10:23:02.921Z,102814.89
2019-02-23T10:25:32.126Z,102824.11
2019-02-23T10:28:01.324Z,102812.94
2019-02-23T10:30:33.394Z,102803.63
2019-02-23T10:33:02.574Z,102799.13
2019-02-23T10:35:31.885Z,102806.27
2019-02-23T10:38:01.072Z,102811.62
2019-02-23T10:40:30.263Z,102798.95
2019-02-23T10:42:59.433Z,102810.54
2019-02-23T10:45:28.614Z,102801.04
2019-02-23T10:47:57.767Z,102796.17
2019-02-23T10:50:27.021Z,102786.11
2019-02-23T10:52:56.238Z,102780.78
2019-02-23T10:55:25.415Z,102778.81
2019-02-23T10:57:54.609Z,102764.94
2019-02-23T11:00:23.855Z,102763.80
2019-02-23T11:02:53.167Z,102748.83
2019-02-23T11:05:22.512Z,102748.70
2019-02-23T11:07:51.684Z,102742.89
2019-02-23T11:10:21.601Z,102740.95
2019-02-23T11:12:51.047Z,102740.84
2019-02-23T11:15:21.187Z,102729.31
2019-02-23T11:17:50.338Z,102739.78
2019-02-23T11:20:19.983Z,102655.80
2019-02-23T11:22:49.135Z,102730.44
2019-02-23T11:25:18.365Z,102730.58
2019-02-23T11:27:47.608Z,102731.25
2019-02-23T11:30:16.998Z,102735.52
2019-02-23T11:32:46.483Z,102736.84
2019-02-23T11:35:17.447Z,102737.23
2019-02-23T11:37:46.627Z,102730.27
2019-02-23T11:40:15.821Z,102725.88
2019-02-23T11:42:45.122Z,102726.52
2019-02-23T11:45:14.310Z,102722.33
2019-02-23T11:47:43.510Z,102716.71
2019-02-23T11:50:12.841Z,102709.40
2019-02-23T11:52:42.017Z,102704.47
2019-02-23T11:55:11.187Z,102699.84
2019-02-23T11:57:40.388Z,102691.81
2019-02-23T12:00:09.913Z,102682.69
2019-02-23T12:02:39.141Z,102681.19
2019-02-23T12:05:08.782Z,102676.03
2019-02-23T12:07:38.014Z,102679.28
2019-02-23T12:10:09.429Z,102680.71
2019-02-23T12:12:38.643Z,102670.91
2019-02-23T12:15:08.222Z,102662.07
2019-02-23T12:17:37.451Z,102661.64
2019-02-23T12:20:06.923Z,102653.89
2019-02-23T12:22:36.109Z,102656.02
2019-02-23T12:25:05.567Z,102656.03
2019-02-23T12:27:34.678Z,102657.02
2019-02-23T12:30:03.893Z,102655.11
2019-02-23T12:32:33.039Z,102651.80
2019-02-23T12:35:02.255Z,102647.17
2019-02-23T12:37:31.399Z,102643.23
2019-02-23T12:40:00.608Z,102639.19
2019-02-23T12:42:29.879Z,102632.91
2019-02-23T12:44:59.224Z,102633.84
2019-02-23T12:47:28.533Z,102634.88
2019-02-23T12:49:57.684Z,102641.59
2019-02-23T12:52:26.927Z,102637.91
2019-02-23T12:54:56.106Z,102643.67
2019-02-23T12:57:25.344Z,102639.28
2019-02-23T12:59:54.566Z,102640.82
2019-02-23T13:02:23.750Z,102639.11
2019-02-23T13:04:52.904Z,102633.98
2019-02-23T13:07:22.070Z,102635.89
2019-02-23T13:09:53.549Z,102632.86
2019-02-23T13:12:45.581Z,102635.12
2019-02-23T13:15:58.943Z,102634.04
2019-02-23T13:18:56.814Z,102634.20
2019-02-23T13:21:43.657Z,102635.57
2019-02-23T13:24:56.726Z,102633.00
2019-02-23T13:27:48.044Z,102630.66
2019-02-23T13:30:52.316Z,102626.18
2019-02-23T13:33:57.175Z,102629.02
2019-02-23T13:36:53.477Z,102632.25
2019-02-23T13:39:52.213Z,102625.03
2019-02-23T13:42:57.119Z,102622.34
2019-02-23T13:45:54.538Z,102624.87
2019-02-23T13:48:59.247Z,102622.00
2019-02-23T13:52:15.041Z,102623.71
2019-02-23T13:55:39.094Z,102618.55
2019-02-23T13:58:20.178Z,102608.22
2019-02-23T14:01:31.399Z,102606.97
2019-02-23T14:04:39.920Z,102599.25
2019-02-23T14:07:40.013Z,102598.72
2019-02-23T14:10:48.140Z,102596.97
2019-02-23T14:13:31.710Z,102583.45
2019-02-23T14:16:30.015Z,102577.95
2019-02-23T14:19:18.750Z,102573.72
2019-02-23T14:22:49.719Z,102574.41
2019-02-23T14:25:52.623Z,102572.61
2019-02-23T14:28:55.519Z,102571.88
2019-02-23T14:31:47.107Z,102578.28
2019-02-23T14:34:58.869Z,102579.00
2019-02-23T14:38:03.472Z,102585.19
2019-02-23T14:40:57.709Z,102580.62
2019-02-23T14:43:57.638Z,102581.27
2019-02-23T14:47:16.742Z,102582.41
2019-02-23T14:50:25.657Z,102566.59
2019-02-23T14:53:46.910Z,102555.03
2019-02-23T14:56:49.370Z,102558.91
2019-02-23T14:59:52.846Z,102564.52
2019-02-23T15:02:52.349Z,102562.54
2019-02-23T15:06:03.695Z,102567.81
2019-02-23T15:09:09.634Z,102569.95
2019-02-23T15:11:47.844Z,102574.00
2019-02-23T15:14:50.273Z,102569.91
2019-02-23T15:17:59.148Z,102571.75
2019-02-23T15:21:17.923Z,102569.02
2019-02-23T15:24:28.457Z,102577.81
2019-02-23T15:27:44.941Z,102579.00
2019-02-23T15:30:35.712Z,102578.87
2019-02-23T15:33:51.597Z,102575.91
2019-02-23T15:36:46.741Z,102578.22
2019-02-23T15:40:12.479Z,102580.50
2019-02-23T15:43:28.983Z,102579.52
2019-02-23T15:46:25.379Z,102583.44
2019-02-23T15:49:20.475Z,102578.94
2019-02-23T15:51:51.099Z,102569.25
2019-02-23T15:54:20.676Z,102573.98
2019-02-23T15:56:50.007Z,102572.47
2019-02-23T15:59:19.556Z,102578.03
2019-02-23T16:01:49.041Z,102578.79
2019-02-23T16:04:18.262Z,102581.86
2019-02-23T16:06:47.724Z,102576.05
2019-02-23T16:09:17.171Z,102577.73
2019-02-23T16:11:46.347Z,102572.87
2019-02-23T16:14:15.533Z,102576.27
2019-02-23T16:16:47.294Z,102571.83
2019-02-23T16:19:15.720Z,102573.58
2019-02-23T16:21:44.914Z,102573.25
2019-02-23T16:24:14.098Z,102583.34
2019-02-23T16:26:43.332Z,102578.34
2019-02-23T16:29:12.541Z,102578.77
2019-02-23T16:31:41.735Z,102579.09
2019-02-23T16:34:11.002Z,102571.02
2019-02-23T16:36:40.298Z,102575.81
2019-02-23T16:39:10.977Z,102574.34
2019-02-23T16:41:40.371Z,102577.30
2019-02-23T16:44:09.681Z,102584.13
2019-02-23T16:46:38.860Z,102586.89
2019-02-23T16:49:08.139Z,102586.20
2019-02-23T16:51:37.425Z,102583.84
2019-02-23T16:54:06.689Z,102581.39
2019-02-23T16:56:35.841Z,102578.91
2019-02-23T16:59:05.097Z,102568.02
2019-02-23T17:01:34.231Z,102567.27
2019-02-23T17:04:03.443Z,102574.89
2019-02-23T17:06:33.002Z,102577.67
2019-02-23T17:09:02.335Z,102579.48
2019-02-23T17:11:31.680Z,102574.35
2019-02-23T17:14:00.939Z,102575.86
2019-02-23T17:16:30.282Z,102580.11
2019-02-23T17:18:59.680Z,102593.53
2019-02-23T17:21:29.206Z,102595.41
2019-02-23T17:23:58.736Z,102596.41
2019-02-23T17:26:28.030Z,102599.58
2019-02-23T17:28:57.629Z,102599.73
2019-02-23T17:31:27.918Z,102599.02
2019-02-23T17:33:57.202Z,102596.27
2019-02-23T17:36:26.337Z,102597.81
2019-02-23T17:38:56.306Z,102597.48
2019-02-23T17:41:25.481Z,102592.32
2019-02-23T17:43:54.611Z,102589.89
2019-02-23T17:46:23.896Z,102594.13
2019-02-23T17:48:53.148Z,102599.89
2019-02-23T17:51:22.507Z,102594.34
2019-02-23T17:53:51.919Z,102597.61
2019-02-23T17:56:21.263Z,102596.59
2019-02-23T17:58:50.773Z,102598.12
2019-02-23T18:01:20.004Z,102603.52
2019-02-23T18:03:49.479Z,102602.42
2019-02-23T18:06:19.285Z,102599.53
2019-02-23T18:08:48.424Z,102598.08
2019-02-23T18:11:17.635Z,102593.97
2019-02-23T18:13:47.118Z,102591.48
2019-02-23T18:16:16.781Z,102590.88
2019-02-23T18:18:46.046Z,102582.13
2019-02-23T18:21:15.367Z,102578.66
2019-02-23T18:23:45.107Z,102575.28
2019-02-23T18:26:20.903Z,102576.33
2019-02-23T18:28:45.319Z,102581.35
2019-02-23T18:31:15.040Z,102573.05
2019-02-23T18:33:44.812Z,102574.84
2019-02-23T18:36:14.034Z,102585.53
2019-02-23T18:38:43.212Z,102582.97
2019-02-23T18:41:12.551Z,102579.61
2019-02-23T18:43:41.779Z,102581.47
2019-02-23T18:46:10.934Z,102586.78
2019-02-23T18:48:40.373Z,102575.05
2019-02-23T18:51:09.729Z,102579.94
2019-02-23T18:53:39.227Z,102584.00
2019-02-23T18:56:08.442Z,102586.22
2019-02-23T18:58:37.743Z,102592.00
2019-02-23T19:01:07.026Z,102589.03
2019-02-23T19:03:36.239Z,102583.07
2019-02-23T19:06:05.695Z,102583.94
2019-02-23T19:08:35.169Z,102588.17
2019-02-23T19:11:04.625Z,102579.73
2019-02-23T19:13:33.910Z,102582.20
2019-02-23T19:16:03.221Z,102589.59
2019-02-23T19:18:32.396Z,102580.09
2019-02-23T19:21:01.601Z,102583.80
2019-02-23T19:23:30.873Z,102585.58
2019-02-23T19:26:00.094Z,102590.82
2019-02-23T19:28:29.324Z,102587.92
2019-02-23T19:30:58.560Z,102584.65
2019-02-23T19:33:27.844Z,102582.36
2019-02-23T19:35:57.107Z,102575.08
2019-02-23T19:38:26.396Z,102571.81
2019-02-23T19:40:55.879Z,102579.47
2019-02-23T19:43:25.068Z,102588.00
2019-02-23T19:45:54.319Z,102584.72
2019-02-23T19:48:23.562Z,102581.94
2019-02-23T19:50:56.479Z,102580.06
2019-02-23T19:53:25.807Z,102580.47
2019-02-23T19:55:55.042Z,102575.56
2019-02-23T19:58:24.440Z,102571.09
2019-02-23T20:00:53.835Z,102573.63
2019-02-23T20:03:23.380Z,102570.03
2019-02-23T20:05:52.823Z,102566.18
2019-02-23T20:08:22.286Z,102574.45
2019-02-23T20:10:51.705Z,102571.18
2019-02-23T20:13:21.231Z,102572.25
2019-02-23T20:15:50.727Z,102580.69
2019-02-23T20:18:20.117Z,102578.27
2019-02-23T20:20:49.929Z,102580.23
2019-02-23T20:23:19.276Z,102583.83
2019-02-23T20:25:48.521Z,102584.31
2019-02-23T20:28:17.903Z,102589.75
2019-02-23T20:30:47.330Z,102587.28
2019-02-23T20:33:16.575Z,102586.22
2019-02-23T20:35:48.058Z,102590.30
2019-02-23T20:38:17.284Z,102588.92
2019-02-23T20:40:46.592Z,102586.55
2019-02-23T20:43:15.914Z,102580.97
2019-02-23T20:45:45.267Z,102580.25
2019-02-23T20:48:14.540Z,102586.45
2019-02-23T20:50:43.690Z,102587.91
2019-02-23T20:53:12.922Z,102591.66
2019-02-23T20:55:42.161Z,102601.55
2019-02-23T20:58:11.390Z,102600.51
2019-02-23T21:00:40.565Z,102605.97
2019-02-23T21:03:09.803Z,102609.55
2019-02-23T21:05:41.633Z,102614.52
2019-02-23T21:08:10.979Z,102615.33
2019-02-23T21:10:40.205Z,102617.45
2019-02-23T21:13:09.591Z,102620.82
2019-02-23T21:15:38.793Z,102620.73
2019-02-23T21:18:07.976Z,102620.88
2019-02-23T21:20:37.219Z,102621.51
2019-02-23T21:23:06.587Z,102619.52
2019-02-23T21:25:35.793Z,102620.65
2019-02-23T21:28:05.534Z,102622.22
2019-02-23T21:30:34.723Z,102623.44
2019-02-23T21:33:03.883Z,102629.38
2019-02-23T21:35:33.053Z,102623.97
2019-02-23T21:38:02.269Z,102631.63
2019-02-23T21:40:31.417Z,102627.13
2019-02-23T21:43:00.564Z,102630.41
2019-02-23T21:45:29.752Z,102631.34
2019-02-23T21:47:59.044Z,102626.15
2019-02-23T21:50:28.220Z,102633.22
2019-02-23T21:52:57.381Z,102632.78
2019-02-23T21:55:26.547Z,102630.20
2019-02-23T21:57:55.725Z,102627.81
2019-02-23T22:00:24.916Z,102629.52
2019-02-23T22:02:54.108Z,102629.92
2019-02-23T22:05:24.713Z,102632.94
2019-02-23T22:07:53.927Z,102637.67
2019-02-23T22:10:23.120Z,102648.46
2019-02-23T22:12:52.375Z,102655.61
2019-02-23T22:15:21.477Z,102653.12
2019-02-23T22:17:50.654Z,102646.70
2019-02-23T22:20:19.797Z,102649.47
2019-02-23T22:22:48.950Z,102637.83
2019-02-23T22:25:18.206Z,102635.03
2019-02-23T22:27:47.424Z,102639.34
2019-02-23T22:30:16.702Z,102639.94
2019-02-23T22:32:45.843Z,102635.03
2019-02-23T22:35:15.029Z,102633.13
2019-02-23T22:37:44.222Z,102630.23
2019-02-23T22:40:13.330Z,102628.33
2019-02-23T22:42:42.550Z,102623.84
2019-02-23T22:45:11.770Z,102620.23
2019-02-23T22:47:40.896Z,102625.27
2019-02-23T22:50:10.167Z,102622.46
2019-02-23T22:52:39.370Z,102629.41
2019-02-23T22:55:08.518Z,102625.03
2019-02-23T22:57:40.456Z,102629.56
2019-02-23T23:00:10.754Z,102627.16
2019-02-23T23:02:39.936Z,102627.36
2019-02-23T23:05:09.093Z,102628.27
2019-02-23T23:07:38.332Z,102623.66
2019-02-23T23:10:07.616Z,102625.09
2019-02-23T23:12:36.836Z,102607.75
2019-02-23T23:15:06.359Z,102613.66
2019-02-23T23:17:35.536Z,102612.20
2019-02-23T23:20:04.881Z,102612.60
2019-02-23T23:22:34.065Z,102613.70
2019-02-23T23:25:03.377Z,102617.62
2019-02-23T23:27:32.639Z,102615.61
2019-02-23T23:30:01.807Z,102628.45
2019-02-23T23:32:30.956Z,102626.97
2019-02-23T23:35:00.329Z,102624.67
2019-02-23T23:37:29.534Z,102616.04
2019-02-23T23:39:58.709Z,102625.84
2019-02-23T23:42:27.903Z,102625.84
2019-02-23T23:44:57.052Z,102625.77
2019-02-23T23:47:26.191Z,102621.26
2019-02-23T23:49:55.336Z,102624.67
2019-02-23T23:52:24.521Z,102622.45
2019-02-23T23:54:53.684Z,102618.45
2019-02-23T23:57:23.294Z,102617.44
2019-02-23T23:59:52.440Z,102612.02
